CheckWX is a tool to help pilots better visualize weather data.  It is not intended as a substitute for an official pre-flight weather briefing.

09:15:06 UTC

KEED METAR
Needles Airport
Needles, California, USA
Current

19 mins ago

KEED 250856Z AUTO 20010KT 10SM CLR 34/19 A2988 RMK AO2 SLP079 T03390189 50002 $
Observed
Aug-25 @ 08:56 UTC
Wind
  • 200° at 10 KTS
Visibility
10 SM
Flight Rules
VFR
Cloud Levels
  • Clear skies
Temperature
34°C / 93°F
Dewpoint
19°C / 66°F
Heat Index
36°C / 96°F
Humidity
41%
Altimeter
29.88" Hg
Pressure
1011.82 hPa
Previous

1 hour ago

KEED 250756Z AUTO 21009KT 10SM CLR 34/19 A2988 RMK AO2 SLP081 T03440189 404110294 $
Observed
Aug-25 @ 07:56 UTC
Wind
  • 210° at 9 KTS
Visibility
10 SM
Flight Rules
VFR
Cloud Levels
  • Clear skies
Temperature
34°C / 93°F
Dewpoint
19°C / 66°F
Heat Index
36°C / 96°F
Humidity
41%
Altimeter
29.88" Hg
Pressure
1011.82 hPa
Previous

2 hours ago

KEED 250656Z AUTO 21006KT 10SM CLR 36/18 A2988 RMK AO2 SLP079 T03560178 $
Observed
Aug-25 @ 06:56 UTC
Wind
  • 210° at 6 KTS
Visibility
10 SM
Flight Rules
VFR
Cloud Levels
  • Clear skies
Temperature
36°C / 97°F
Dewpoint
18°C / 64°F
Humidity
34%
Altimeter
29.88" Hg
Pressure
1011.82 hPa